Time;durP1;ratioP1;P1;durP2;ratioP2;P2;SDS_P1;SDS_P2;PMS_P1;PMS_P2;Temp;Humidity;BMP_temperature;BMP_pressure;BME280_temperature;BME280_humidity;BME280_pressure;Samples;Min_cycle;Max_cycle;Signal;HPM_P1;HPM_P2
2021/12/28 00:02:00;;;;;;;37.83;17.40;;;0.70;2201.60;;;;;;4590280;31;20038;-79
2021/12/28 00:04:37;;;;;;;43.55;19.23;;;0.80;2201.60;;;;;;4584358;31;20121;-78
2021/12/28 00:07:03;;;;;;;43.42;19.52;;;0.80;2201.60;;;;;;4582446;31;20624;-77
2021/12/28 00:09:54;;;;;;;43.20;19.05;;;0.80;2201.60;;;;;;4584837;31;20024;-78
2021/12/28 00:12:30;;;;;;;48.58;20.00;;;0.70;2201.60;;;;;;4576069;31;20049;-78
2021/12/28 00:15:18;;;;;;;43.72;20.17;;;0.80;2201.60;;;;;;4575842;31;20057;-76
2021/12/28 00:18:30;;;;;;;48.35;21.25;;;0.80;2201.60;;;;;;4601103;31;20045;-78
2021/12/28 00:21:11;;;;;;;60.05;23.08;;;0.60;2201.60;;;;;;4567657;31;20053;-78
2021/12/28 00:23:44;;;;;;;63.10;22.02;;;0.50;2201.60;;;;;;4551201;31;20395;-78
2021/12/28 00:26:16;;;;;;;76.43;24.98;;;0.40;2201.60;;;;;;4538081;31;20047;-85
2021/12/28 00:28:43;;;;;;;59.58;22.58;;;0.50;2201.60;;;;;;4574125;31;20056;-76
2021/12/28 00:31:13;;;;;;;60.10;21.55;;;0.40;2201.60;;;;;;4609252;31;20051;-78
2021/12/28 00:33:40;;;;;;;52.40;19.48;;;0.50;2201.60;;;;;;4634910;30;20046;-77
2021/12/28 00:36:16;;;;;;;59.33;21.25;;;0.50;2201.60;;;;;;4676893;30;20085;-81
2021/12/28 00:38:50;;;;;;;66.80;23.15;;;0.50;2201.60;;;;;;4691468;30;20524;-78
2021/12/28 00:41:42;;;;;;;67.15;23.20;;;0.50;2201.60;;;;;;4699630;30;21027;-78
2021/12/28 00:44:14;;;;;;;56.63;21.42;;;38.40;2201.60;;;;;;4716177;30;20088;-78
2021/12/28 00:46:42;;;;;;;67.20;23.67;;;0.70;2201.60;;;;;;4716903;30;20149;-77
2021/12/28 00:49:19;;;;;;;69.07;23.17;;;25.80;2201.60;;;;;;4705663;30;20085;-78
2021/12/28 00:51:50;;;;;;;52.05;22.45;;;0.80;2201.60;;;;;;4696167;30;20137;-77
2021/12/28 00:54:17;;;;;;;55.58;22.15;;;0.90;2201.60;;;;;;4701201;30;20050;-78
2021/12/28 00:56:42;;;;;;;72.03;22.95;;;0.90;2201.60;;;;;;4710160;30;20100;-77
2021/12/28 00:59:13;;;;;;;65.28;23.13;;;0.90;2201.60;;;;;;4693520;30;20038;-77
2021/12/28 01:01:40;;;;;;;63.13;23.90;;;25.60;2201.60;;;;;;4703446;30;20115;-77
2021/12/28 01:04:07;;;;;;;43.47;19.10;;;25.60;2201.60;;;;;;4695479;30;20045;-77
2021/12/28 01:06:49;;;;;;;46.42;20.73;;;25.60;2201.60;;;;;;4705857;30;20088;-78
2021/12/28 01:09:42;;;;;;;55.67;27.17;;;25.70;2201.60;;;;;;4686430;30;20045;-78
2021/12/28 01:12:46;;;;;;;48.92;24.20;;;25.70;2201.60;;;;;;4715958;30;20037;-78
2021/12/28 01:15:35;;;;;;;43.30;20.02;;;0.00;2201.60;;;;;;4729142;30;20148;-78
2021/12/28 01:18:36;;;;;;;50.20;22.35;;;25.80;2201.60;;;;;;4713542;30;20042;-78
2021/12/28 01:22:08;;;;;;;41.17;20.80;;;25.80;2201.60;;;;;;4698112;30;20568;-78
2021/12/28 01:25:36;;;;;;;36.08;16.75;;;25.70;2201.60;;;;;;4644833;30;20044;-77
2021/12/28 01:28:24;;;;;;;37.78;16.88;;;25.80;2201.60;;;;;;4647747;30;20031;-78
2021/12/28 01:31:49;;;;;;;37.22;17.17;;;25.80;2201.60;;;;;;4649999;31;20082;-78
2021/12/28 01:35:04;;;;;;;39.40;18.77;;;25.90;2201.60;;;;;;4613466;30;20031;-78
2021/12/28 01:38:24;;;;;;;51.97;20.35;;;25.80;2201.60;;;;;;4628189;30;20040;-78
2021/12/28 01:40:53;;;;;;;48.42;23.10;;;25.70;2201.60;;;;;;4838697;24;20412;-77
2021/12/28 01:43:40;;;;;;;40.03;18.98;;;25.80;2201.60;;;;;;4843074;29;20066;-78
2021/12/28 01:47:02;;;;;;;40.08;18.58;;;25.70;2201.60;;;;;;4829736;29;20035;-78
2021/12/28 01:50:10;;;;;;;41.63;20.08;;;25.60;2201.60;;;;;;4799911;30;20027;-79
2021/12/28 01:53:06;;;;;;;32.95;15.25;;;0.90;2201.60;;;;;;4761923;30;20031;-78
2021/12/28 01:56:26;;;;;;;31.67;15.52;;;25.60;2201.60;;;;;;4789183;29;20031;-78
2021/12/28 01:59:25;;;;;;;37.15;18.20;;;0.90;2201.60;;;;;;4808228;30;20130;-77
2021/12/28 02:02:40;;;;;;;41.53;18.38;;;25.60;2201.60;;;;;;4790119;30;20071;-79
2021/12/28 02:06:00;;;;;;;35.70;15.80;;;25.60;2201.60;;;;;;4738651;30;20041;-78
2021/12/28 02:09:24;;;;;;;39.95;17.70;;;25.60;2201.60;;;;;;4723231;30;20112;-78
2021/12/28 02:12:03;;;;;;;43.40;18.73;;;0.90;2201.60;;;;;;4684460;30;20034;-78
2021/12/28 02:14:54;;;;;;;51.00;18.88;;;25.60;2201.60;;;;;;4631112;30;20049;-78
2021/12/28 02:18:18;;;;;;;48.03;20.40;;;25.60;2201.60;;;;;;4665290;30;20034;-78
2021/12/28 02:24:08;;;;;;;53.67;19.20;;;25.70;2201.60;;;;;;4684575;30;19935;-78
2021/12/28 02:27:23;;;;;;;75.45;23.05;;;25.70;2201.60;;;;;;4656337;30;20030;-78
2021/12/28 02:30:20;;;;;;;58.78;21.08;;;25.60;2201.60;;;;;;4613165;31;20104;-77
2021/12/28 02:32:55;;;;;;;50.17;21.92;;;25.60;2201.60;;;;;;4962227;24;20058;-78
2021/12/28 02:36:08;;;;;;;55.50;22.40;;;25.80;2201.60;;;;;;4827995;29;20119;-78
2021/12/28 02:38:49;;;;;;;62.17;22.52;;;25.80;2201.60;;;;;;4840796;29;20049;-78
2021/12/28 02:41:16;;;;;;;66.03;21.60;;;25.90;2201.60;;;;;;4810755;29;20133;-78
2021/12/28 02:43:48;;;;;;;103.45;24.27;;;26.00;2201.60;;;;;;4822177;29;20038;-78
2021/12/28 02:46:33;;;;;;;74.25;23.63;;;25.90;2201.60;;;;;;4827698;29;20043;-79
2021/12/28 02:49:01;;;;;;;91.93;23.67;;;51.20;2227.20;;;;;;4831781;29;20114;-78
2021/12/28 02:52:11;;;;;;;114.28;25.00;;;25.90;2201.60;;;;;;4835786;29;20050;-76
2021/12/28 02:58:46;;;;;;;108.13;24.80;;;25.80;2201.60;;;;;;4739805;30;20028;-79
2021/12/28 03:01:41;;;;;;;213.65;29.08;;;26.10;2201.60;;;;;;4723259;30;20022;-78
2021/12/28 03:05:09;;;;;;;144.57;26.70;;;25.90;2201.60;;;;;;4721152;30;20080;-79
2021/12/28 03:07:36;;;;;;;90.28;23.25;;;25.80;2201.60;;;;;;4715784;30;20064;-78
2021/12/28 03:10:50;;;;;;;68.65;24.05;;;25.80;2201.60;;;;;;4719010;30;20040;-79
2021/12/28 03:13:50;;;;;;;;;;;25.80;2201.60;;;;;;4685578;30;20046;-78
2021/12/28 03:16:59;;;;;;;76.72;25.17;;;25.80;2201.60;;;;;;4608350;30;19933;-78
2021/12/28 03:29:28;;;;;;;68.90;24.77;;;25.80;2201.60;;;;;;4897202;24;20058;-79
2021/12/28 03:33:03;;;;;;;84.65;30.00;;;25.90;2201.60;;;;;;4806091;29;20047;-79
2021/12/28 03:40:01;;;;;;;72.68;27.10;;;26.00;2201.60;;;;;;4792954;29;20171;-79
2021/12/28 03:54:39;;;;;;;60.10;27.23;;;26.00;2201.60;;;;;;4835655;29;20052;-79
2021/12/28 03:57:39;;;;;;;47.95;23.05;;;26.10;2201.60;;;;;;4798265;29;20034;-78
2021/12/28 04:01:03;;;;;;;46.55;23.48;;;26.30;2201.60;;;;;;4809218;30;20026;-78
2021/12/28 04:04:20;;;;;;;30.48;17.30;;;;;;;;;;4805558;30;20058;-79
2021/12/28 04:07:32;;;;;;;38.42;21.70;;;;;;;;;;4774202;30;20062;-79
2021/12/28 04:13:17;;;;;;;35.42;18.58;;;;;;;;;;4739334;30;20136;-79
2021/12/28 04:16:29;;;;;;;31.77;17.70;;;;;;;;;;4700586;30;20023;-79
2021/12/28 04:18:56;;;;;;;32.50;18.13;;;;;;;;;;4647220;31;20054;-77
2021/12/28 04:21:27;;;;;;;33.88;17.73;;;;;;;;;;4653369;30;20051;-80
2021/12/28 04:24:24;;;;;;;28.02;15.70;;;;;;;;;;4623821;31;20071;-77
2021/12/28 04:27:10;;;;;;;25.45;14.98;;;;;;;;;;4613652;31;20067;-78
2021/12/28 04:29:37;;;;;;;31.98;17.08;;;;;;;;;;4615310;30;20047;-78
2021/12/28 04:32:23;;;;;;;28.95;16.80;;;;;;;;;;4631499;31;20054;-79
2021/12/28 04:34:58;;;;;;;30.02;16.40;;;;;;;;;;4603397;31;20047;-78
2021/12/28 04:37:27;;;;;;;32.42;18.27;;;;;;;;;;4620289;31;20047;-77
2021/12/28 04:39:58;;;;;;;35.45;21.42;;;;;;;;;;4627257;31;20052;-79
2021/12/28 04:42:47;;;;;;;34.63;18.90;;;;;;;;;;4634524;30;20048;-79
2021/12/28 04:45:37;;;;;;;30.30;16.85;;;;;;;;;;4635424;31;20032;-78
2021/12/28 04:48:28;;;;;;;32.90;16.27;;;;;;;;;;4607711;31;20032;-78
2021/12/28 04:51:23;;;;;;;34.95;18.48;;;;;;;;;;4618206;31;20056;-78
2021/12/28 04:54:22;;;;;;;33.20;16.60;;;;;;;;;;4645868;30;20063;-79
2021/12/28 04:57:09;;;;;;;31.35;16.98;;;;;;;;;;4709118;30;20026;-77
2021/12/28 04:59:44;;;;;;;40.45;19.10;;;;;;;;;;4741223;30;20086;-79
2021/12/28 05:02:13;;;;;;;56.13;20.02;;;;;;;;;;4750719;30;20049;-77
2021/12/28 05:04:39;;;;;;;62.30;19.50;;;;;;;;;;4748500;30;20045;-78
2021/12/28 05:07:05;;;;;;;72.32;23.13;;;;;;;;;;4733120;30;20037;-78
2021/12/28 05:09:32;;;;;;;115.38;23.65;;;;;;;;;;4733445;30;20037;-77
2021/12/28 05:12:02;;;;;;;95.82;25.25;;;;;;;;;;4743916;30;20097;-77
2021/12/28 05:14:28;;;;;;;113.82;27.63;;;;;;;;;;4751429;30;20036;-78
2021/12/28 05:17:03;;;;;;;129.20;26.77;;;;;;;;;;4732469;30;20105;-78
2021/12/28 05:20:12;;;;;;;116.25;26.52;;;;;;;;;;4731716;30;20049;-76
2021/12/28 05:23:01;;;;;;;139.48;27.58;;;;;;;;;;4744189;29;20055;-78
2021/12/28 05:26:10;;;;;;;152.85;28.45;;;;;;;;;;4792638;29;20036;-78
2021/12/28 05:28:53;;;;;;;133.65;28.05;;;;;;;;;;4828427;29;20037;-79
2021/12/28 05:31:47;;;;;;;141.93;29.00;;;;;;;;;;4800799;29;20027;-80
2021/12/28 05:34:53;;;;;;;111.65;26.63;;;;;;;;;;4810942;29;20023;-78
2021/12/28 05:37:49;;;;;;;119.15;26.85;;;;;;;;;;4811312;29;20043;-79
2021/12/28 05:40:55;;;;;;;102.20;31.58;;;;;;;;;;4810918;29;20108;-81
2021/12/28 05:43:49;;;;;;;133.23;27.80;;;;;;;;;;4808394;29;20051;-78
2021/12/28 05:46:35;;;;;;;127.28;31.70;;;;;;;;;;4793138;30;20062;-78
2021/12/28 05:49:12;;;;;;;125.15;32.58;;;;;;;;;;4777229;30;20117;-78
2021/12/28 05:52:00;;;;;;;128.02;30.00;;;;;;;;;;4781073;30;20040;-78
2021/12/28 05:54:27;;;;;;;122.32;37.33;;;;;;;;;;4781378;29;20089;-75
2021/12/28 05:57:08;;;;;;;143.60;37.40;;;;;;;;;;4782069;30;20036;-80
2021/12/28 05:59:36;;;;;;;111.13;31.27;;;;;;;;;;4780974;30;20092;-80
2021/12/28 06:02:02;;;;;;;145.23;35.67;;;;;;;;;;4784473;30;20546;-88
2021/12/28 06:04:29;;;;;;;100.15;28.45;;;;;;;;;;4781567;30;20036;-77
2021/12/28 06:06:56;;;;;;;137.15;33.55;;;;;;;;;;4783286;30;20099;-83
2021/12/28 06:09:34;;;;;;;124.75;33.13;;;;;;;;;;4768463;30;20055;-83
2021/12/28 06:12:11;;;;;;;124.57;30.65;;;;;;;;;;4782738;29;20027;-79
2021/12/28 06:14:40;;;;;;;137.18;33.22;;;;;;;;;;4806718;29;20047;-77
2021/12/28 06:17:28;;;;;;;141.27;35.65;;;;;;;;;;4785554;30;20088;-78
2021/12/28 06:19:56;;;;;;;134.48;31.25;;;;;;;;;;4754231;30;20056;-77
2021/12/28 06:22:43;;;;;;;129.95;32.78;;;;;;;;;;4755696;30;20039;-77
2021/12/28 06:25:09;;;;;;;149.38;35.25;;;;;;;;;;4769774;30;20044;-82
2021/12/28 06:27:36;;;;;;;172.25;39.53;;;;;;;;;;4764192;30;20064;-76
2021/12/28 06:30:06;;;;;;;127.10;32.45;;;;;;;;;;4757933;30;20143;-76
2021/12/28 06:32:42;;;;;;;146.25;32.40;;;;;;;;;;4767926;30;20070;-77
2021/12/28 06:35:13;;;;;;;161.95;43.70;;;;;;;;;;4768005;30;20087;-76
2021/12/28 06:38:01;;;;;;;155.13;41.95;;;;;;;;;;4746536;30;20040;-76
2021/12/28 06:40:47;;;;;;;210.82;42.85;;;;;;;;;;4748408;30;20120;-76
2021/12/28 06:43:14;;;;;;;208.60;43.70;;;;;;;;;;4716087;30;20048;-77
2021/12/28 06:45:41;;;;;;;181.93;42.70;;;;;;;;;;4713819;30;20045;-76
2021/12/28 06:48:09;;;;;;;200.07;43.08;;;;;;;;;;4716801;30;20050;-76
2021/12/28 06:53:25;;;;;;;191.35;41.63;;;;;;;;;;4842224;29;20066;-76
2021/12/28 06:55:53;;;;;;;184.60;44.03;;;;;;;;;;4816407;29;20027;-76
2021/12/28 06:58:28;;;;;;;175.38;42.67;;;;;;;;;;4840588;29;20026;-77
2021/12/28 07:00:54;;;;;;;174.50;50.53;;;;;;;;;;5272064;24;20119;-77
2021/12/28 07:06:07;;;;;;;126.30;43.78;;;;;;;;;;4927244;24;20038;-74
2021/12/28 07:08:34;;;;;;;120.88;54.05;;;;;;;;;;4806901;29;20397;-75
2021/12/28 07:11:20;;;;;;;141.20;69.47;;;;;;;;;;4812578;29;20035;-79
2021/12/28 07:13:58;;;;;;;166.27;84.93;;;;;;;;;;4841441;29;20021;-79
2021/12/28 07:16:29;;;;;;;162.65;85.80;;;;;;;;;;4842916;29;20031;-77
2021/12/28 07:18:55;;;;;;;127.47;66.30;;;;;;;;;;4817171;29;20492;-75
2021/12/28 07:21:21;;;;;;;142.30;71.07;;;;;;;;;;4856082;29;20059;-78
2021/12/28 07:23:47;;;;;;;100.97;53.05;;;;;;;;;;4823198;29;20038;-78
2021/12/28 07:26:18;;;;;;;106.32;54.90;;;;;;;;;;4841794;29;20046;-75
2021/12/28 07:28:44;;;;;;;79.30;41.38;;;;;;;;;;4834526;29;20039;-75
2021/12/28 07:31:10;;;;;;;84.00;45.70;;;;;;;;;;4806586;29;20100;-75
2021/12/28 07:33:38;;;;;;;70.97;36.50;;;;;;;;;;4820540;29;20031;-74
2021/12/28 07:36:05;;;;;;;77.30;42.60;;;;;;;;;;4815628;29;20049;-74
2021/12/28 07:38:40;;;;;;;72.25;36.00;;;;;;;;;;4826527;29;20034;-77
2021/12/28 07:41:09;;;;;;;76.88;38.10;;;;;;;;;;4814047;29;20039;-75
2021/12/28 07:43:38;;;;;;;75.30;36.80;;;;;;;;;;4818066;29;20050;-79
2021/12/28 07:46:14;;;;;;;68.15;34.55;;;;;;;;;;4812255;29;20038;-78
2021/12/28 07:48:41;;;;;;;64.40;31.00;;;;;;;;;;4825299;29;20031;-77
2021/12/28 07:51:07;;;;;;;55.20;27.42;;;;;;;;;;4815649;29;20038;-77
2021/12/28 07:53:35;;;;;;;56.95;28.77;;;;;;;;;;4824951;29;20050;-78
2021/12/28 07:56:02;;;;;;;82.00;30.80;;;;;;;;;;4820357;29;20398;-78
2021/12/28 07:58:28;;;;;;;76.55;31.60;;;;;;;;;;4812374;29;20486;-78
2021/12/28 08:00:56;;;;;;;76.93;32.30;;;;;;;;;;4806478;29;20180;-77
2021/12/28 08:03:34;;;;;;;69.88;31.10;;;;;;;;;;4829144;29;20046;-78
2021/12/28 08:06:05;;;;;;;64.93;29.98;;;;;;;;;;4824573;29;20099;-79
2021/12/28 08:08:43;;;;;;;82.97;35.60;;;;;;;;;;4773434;30;20047;-77
2021/12/28 08:11:23;;;;;;;86.88;39.28;;;;;;;;;;4777830;30;20533;-79
2021/12/28 08:13:51;;;;;;;83.00;37.65;;;;;;;;;;4788393;30;20044;-79
2021/12/28 08:16:39;;;;;;;75.45;31.88;;;;;;;;;;4769726;30;20031;-80
2021/12/28 08:19:10;;;;;;;69.10;32.75;;;;;;;;;;4770201;30;20055;-76
2021/12/28 08:21:40;;;;;;;71.13;34.72;;;;;;;;;;4786248;30;20032;-75
2021/12/28 08:24:08;;;;;;;77.80;35.35;;;;;;;;;;4774432;30;20081;-79
2021/12/28 08:26:39;;;;;;;70.43;33.55;;;;;;;;;;4806903;30;20023;-78
2021/12/28 08:29:34;;;;;;;90.80;36.40;;;;;;;;;;4793125;30;20023;-78
2021/12/28 08:32:15;;;;;;;83.88;32.05;;;;;;;;;;4982947;24;20042;-77
2021/12/28 08:34:47;;;;;;;74.78;33.00;;;;;;;;;;4843568;29;20068;-77
2021/12/28 08:37:13;;;;;;;69.32;32.67;;;;;;;;;;4860756;29;20010;-73
2021/12/28 08:39:39;;;;;;;80.65;35.08;;;;;;;;;;4861159;29;20077;-74
2021/12/28 08:42:05;;;;;;;70.20;32.17;;;;;;;;;;4828593;29;20037;-76
2021/12/28 08:44:34;;;;;;;65.72;31.75;;;;;;;;;;4842938;29;20082;-74
2021/12/28 08:47:00;;;;;;;47.83;26.83;;;;;;;;;;4855594;29;20059;-75
2021/12/28 08:49:27;;;;;;;51.25;27.27;;;;;;;;;;4829318;29;20534;-74
2021/12/28 08:51:53;;;;;;;49.38;28.58;;;;;;;;;;4844041;29;20468;-76
2021/12/28 08:54:19;;;;;;;50.90;30.50;;;;;;;;;;4855122;29;20037;-77
2021/12/28 08:57:02;;;;;;;60.90;32.88;;;;;;;;;;4864493;29;20030;-78
2021/12/28 08:59:28;;;;;;;64.07;33.47;;;;;;;;;;4825880;29;20031;-77
2021/12/28 09:01:56;;;;;;;60.92;30.25;;;;;;;;;;4848533;29;20041;-79
2021/12/28 09:04:23;;;;;;;63.97;30.77;;;;;;;;;;4814874;29;20049;-76
2021/12/28 09:06:50;;;;;;;71.30;30.40;;;;;;;;;;4852180;29;20042;-76
2021/12/28 09:09:16;;;;;;;66.60;30.73;;;;;;;;;;4856805;29;20059;-75
2021/12/28 09:11:45;;;;;;;65.10;32.60;;;;;;;;;;4858011;29;20034;-75
2021/12/28 09:14:36;;;;;;;348.23;155.73;;;;;;;;;;4853400;29;20033;-79
2021/12/28 09:17:22;;;;;;;79.20;37.70;;;;;;;;;;4856919;29;20065;-77
2021/12/28 09:19:48;;;;;;;71.22;37.83;;;;;;;;;;4857170;29;20054;-78
2021/12/28 09:22:47;;;;;;;58.90;31.95;;;;;;;;;;4841074;29;20041;-77
2021/12/28 09:25:34;;;;;;;61.15;31.67;;;;;;;;;;4813003;29;20049;-76
2021/12/28 09:28:00;;;;;;;157.70;68.38;;;;;;;;;;4813559;29;20035;-77
2021/12/28 09:30:33;;;;;;;247.93;109.85;;;;;;;;;;4808247;29;20055;-76
2021/12/28 09:33:01;;;;;;;76.22;40.22;;;;;;;;;;4794378;29;20083;-75
2021/12/28 09:35:30;;;;;;;68.18;34.45;;;;;;;;;;4787436;30;20167;-75
2021/12/28 09:37:58;;;;;;;76.97;35.10;;;;;;;;;;4787425;29;20035;-78
2021/12/28 09:40:24;;;;;;;80.32;36.47;;;;;;;;;;4795626;30;20040;-73
2021/12/28 09:42:50;;;;;;;113.05;52.30;;;;;;;;;;4807338;30;20035;-73
2021/12/28 09:45:16;;;;;;;79.00;34.03;;;;;;;;;;4818756;29;20058;-72
2021/12/28 09:47:44;;;;;;;92.53;35.13;;;;;;;;;;4810365;29;20046;-73
2021/12/28 09:50:15;;;;;;;107.45;40.08;;;;;;;;;;4802145;30;20507;-75
2021/12/28 09:52:46;;;;;;;87.05;32.05;;;;;;;;;;4806963;30;20035;-75
2021/12/28 09:55:17;;;;;;;;;;;;;;;;;;4805001;29;20061;-76
2021/12/28 09:57:45;;;;;;;152.18;60.97;;;;;;;;;;4822146;29;20375;-76
2021/12/28 10:00:12;;;;;;;92.68;41.72;;;;;;;;;;4810313;29;20034;-76
2021/12/28 10:02:38;;;;;;;119.40;51.78;;;;;;;;;;4829016;29;20571;-78
2021/12/28 10:05:07;;;;;;;69.82;32.58;;;;;;;;;;4830852;29;20101;-74
2021/12/28 10:07:36;;;;;;;82.40;37.53;;;;;;;;;;4839465;29;20034;-75
2021/12/28 10:10:07;;;;;;;65.55;32.97;;;;;;;;;;4830143;29;20485;-77
2021/12/28 10:12:35;;;;;;;64.72;31.70;;;;;;;;;;4815140;29;20040;-77
2021/12/28 10:15:27;;;;;;;69.88;37.22;;;;;;;;;;4820921;29;20047;-79
2021/12/28 10:18:05;;;;;;;182.52;89.07;;;;;;;;;;4803030;29;20565;-77
2021/12/28 10:20:33;;;;;;;77.28;39.50;;;;;;;;;;4819193;29;20046;-76
2021/12/28 10:23:02;;;;;;;85.95;47.53;;;;;;;;;;4804090;29;20133;-77
2021/12/28 10:25:47;;;;;;;107.90;54.65;;;;;;;;;;4806017;29;20034;-78
2021/12/28 10:28:19;;;;;;;69.78;34.50;;;;;;;;;;4852076;29;20469;-76
2021/12/28 10:30:49;;;;;;;75.37;34.07;;;;;;;;;;4845125;29;20042;-75
2021/12/28 10:33:18;;;;;;;81.90;38.05;;;;;;;;;;4825760;29;20050;-75
2021/12/28 10:35:46;;;;;;;160.70;74.05;;;;;;;;;;4825916;29;20030;-75
2021/12/28 10:38:15;;;;;;;100.25;45.63;;;;;;;;;;4824810;29;20042;-76
2021/12/28 10:40:42;;;;;;;104.68;47.83;;;;;;;;;;4824477;29;20034;-75
2021/12/28 10:43:13;;;;;;;116.57;40.05;;;;;;;;;;4824720;29;20071;-76
2021/12/28 10:45:40;;;;;;;119.68;41.78;;;;;;;;;;4804975;29;20037;-76
2021/12/28 10:48:12;;;;;;;137.18;44.55;;;;;;;;;;4832346;29;20030;-75
2021/12/28 10:50:54;;;;;;;137.90;42.42;;;;;;;;;;4831713;29;20033;-76
2021/12/28 10:53:33;;;;;;;114.07;45.17;;;;;;;;;;4833347;29;20109;-77
2021/12/28 10:56:29;;;;;;;152.95;50.70;;;;;;;;;;4836342;29;20022;-78
2021/12/28 10:59:10;;;;;;;127.85;54.15;;;;;;;;;;4835212;29;20046;-79
2021/12/28 11:01:52;;;;;;;107.93;48.78;;;;;;;;;;4849683;29;20075;-80
2021/12/28 11:04:19;;;;;;;149.93;69.10;;;;;;;;;;4819372;29;20045;-76
2021/12/28 11:06:54;;;;;;;89.63;45.25;;;;;;;;;;4832988;29;20099;-78
2021/12/28 11:09:23;;;;;;;109.95;49.50;;;;;;;;;;4832224;29;20110;-76
2021/12/28 11:11:51;;;;;;;150.73;66.72;;;;;;;;;;4834211;29;20086;-75
2021/12/28 11:14:25;;;;;;;79.85;41.92;;;;;;;;;;4840806;29;20040;-79
2021/12/28 11:16:52;;;;;;;;;;;;;;;;;;4835754;29;20074;-77
2021/12/28 11:19:28;;;;;;;89.93;44.67;;;;;;;;;;4835967;29;19978;-76
2021/12/28 11:22:05;;;;;;;167.88;89.25;;;;;;;;;;4835426;29;20152;-77
2021/12/28 11:24:32;;;;;;;180.52;90.82;;;;;;;;;;4813400;29;20034;-74
2021/12/28 11:27:04;;;;;;;137.65;62.13;;;;;;;;;;4846177;29;20038;-76
2021/12/28 11:29:32;;;;;;;171.60;79.35;;;;;;;;;;4847078;29;20094;-78
2021/12/28 11:32:01;;;;;;;104.90;50.55;;;;;;;;;;4838766;29;20070;-74
2021/12/28 11:34:28;;;;;;;163.57;81.95;;;;;;;;;;4833912;29;20038;-78
2021/12/28 11:37:00;;;;;;;96.72;48.60;;;;;;;;;;4839625;29;20037;-77
2021/12/28 11:39:33;;;;;;;101.00;51.83;;;;;;;;;;4835880;29;20095;-76
2021/12/28 11:42:00;;;;;;;203.93;85.30;;;;;;;;;;4817408;29;20107;-78
2021/12/28 11:44:28;;;;;;;237.95;104.90;;;;;;;;;;4836879;29;20049;-74
2021/12/28 11:46:57;;;;;;;270.83;123.72;;;;;;;;;;4817775;29;20034;-76
2021/12/28 11:49:27;;;;;;;130.57;63.38;;;;;;;;;;4834985;29;20124;-75
2021/12/28 11:51:54;;;;;;;132.25;64.72;;;;;;;;;;4840745;29;20125;-76
2021/12/28 11:54:23;;;;;;;154.18;77.15;;;;;;;;;;4838419;29;20050;-76
2021/12/28 11:56:52;;;;;;;127.78;63.63;;;;;;;;;;4834635;29;20035;-75
2021/12/28 11:59:28;;;;;;;113.78;59.00;;;;;;;;;;4839972;29;20102;-74
2021/12/28 12:01:58;;;;;;;114.85;54.78;;;;;;;;;;4836634;29;20086;-76
2021/12/28 12:04:27;;;;;;;117.97;61.55;;;;;;;;;;4831498;29;20101;-78
2021/12/28 12:06:57;;;;;;;165.55;86.93;;;;;;;;;;4830499;29;20075;-77
2021/12/28 12:09:24;;;;;;;110.68;57.88;;;;;;;;;;4829141;29;20038;-77
2021/12/28 12:12:23;;;;;;;109.60;54.40;;;;;;;;;;4830439;29;20026;-77
2021/12/28 12:14:56;;;;;;;112.13;53.28;;;;;;;;;;4793949;30;20055;-78
2021/12/28 12:17:30;;;;;;;102.07;51.83;;;;;;;;;;4779472;30;20172;-77
2021/12/28 12:20:00;;;;;;;101.80;52.35;;;;;;;;;;4795581;29;20027;-76
2021/12/28 12:22:32;;;;;;;112.45;52.63;;;;;;;;;;4813423;29;20110;-75
2021/12/28 12:24:59;;;;;;;111.18;51.80;;;;;;;;;;4797970;30;20047;-76
2021/12/28 12:27:44;;;;;;;111.53;51.58;;;;;;;;;;4795873;30;20129;-77
2021/12/28 12:30:16;;;;;;;131.88;60.20;;;;;;;;;;4787243;30;20101;-76
2021/12/28 12:33:08;;;;;;;136.50;61.00;;;;;;;;;;4791823;29;20140;-77
2021/12/28 12:35:47;;;;;;;156.40;59.95;;;;;;;;;;4793302;29;20088;-76
2021/12/28 12:38:18;;;;;;;150.13;62.60;;;;;;;;;;4793580;30;20055;-76
2021/12/28 12:40:57;;;;;;;140.50;61.35;;;;;;;;;;4806133;30;20023;-74
2021/12/28 12:43:26;;;;;;;171.45;59.45;;;;;;;;;;4790411;30;20087;-77
2021/12/28 12:45:52;;;;;;;206.80;56.88;;;;;;;;;;4806826;29;20132;-76
2021/12/28 13:08:21;;;;;;;341.48;64.65;;;;;;;;;;5137786;27;20400;-78
2021/12/28 13:10:47;;;;;;;421.17;61.33;;;;;;;;;;5113820;28;20020;-75
2021/12/28 13:13:14;;;;;;;350.73;63.13;;;;;;;;;;5105955;28;20048;-78
2021/12/28 13:15:40;;;;;;;438.50;63.00;;;;;;;;;;5117287;28;20035;-76
2021/12/28 13:18:06;;;;;;;301.02;63.50;;;;;;;;;;5121436;28;20066;-78
2021/12/28 13:20:34;;;;;;;375.85;66.70;;;;;;;;;;5111709;28;20119;-76
2021/12/28 13:23:04;;;;;;;272.17;66.50;;;;;;;;;;5110007;28;20034;-77
2021/12/28 13:25:39;;;;;;;371.92;68.45;;;;;;;;;;5099650;28;20052;-76
2021/12/28 13:28:08;;;;;;;363.88;67.45;;;;;;;;;;5111238;27;20432;-76
2021/12/28 13:30:36;;;;;;;405.58;65.60;;;;;;;;;;5110151;28;20056;-76
2021/12/28 13:33:03;;;;;;;478.10;71.18;;;;;;;;;;5114583;27;20023;-76
2021/12/28 13:35:38;;;;;;;351.75;64.22;;;;;;;;;;5111493;28;20485;-76
2021/12/28 13:38:08;;;;;;;449.17;66.55;;;;;;;;;;5109157;28;20043;-76
2021/12/28 13:40:40;;;;;;;457.13;68.63;;;;;;;;;;5109867;28;20028;-76
2021/12/28 13:43:25;;;;;;;480.85;67.40;;;;;;;;;;5112664;28;20093;-75
2021/12/28 13:46:10;;;;;;;509.13;65.28;;;;;;;;;;5099067;28;20023;-77
2021/12/28 13:48:38;;;;;;;543.47;64.53;;;;;;;;;;5111382;28;20435;-76
2021/12/28 13:51:04;;;;;;;451.98;67.05;;;;;;;;;;5109116;28;20092;-75
2021/12/28 13:53:34;;;;;;;444.50;69.38;;;;;;;;;;5113490;28;20538;-76
2021/12/28 13:56:00;;;;;;;463.15;72.22;;;;;;;;;;5116592;28;20031;-77
2021/12/28 13:58:28;;;;;;;464.35;75.15;;;;;;;;;;5111625;28;20016;-76
2021/12/28 14:00:56;;;;;;;444.15;75.45;;;;;;;;;;5110709;28;20028;-77
2021/12/28 14:03:22;;;;;;;469.63;79.57;;;;;;;;;;5132555;28;20064;-80
2021/12/28 14:05:49;;;;;;;485.73;79.28;;;;;;;;;;5112946;28;20024;-76
2021/12/28 14:08:16;;;;;;;457.95;77.93;;;;;;;;;;5112184;28;20159;-76
2021/12/28 14:10:42;;;;;;;487.58;83.97;;;;;;;;;;5111869;28;20420;-77
2021/12/28 14:13:10;;;;;;;479.75;73.05;;;;;;;;;;5109412;28;20528;-77
2021/12/28 14:15:51;;;;;;;410.20;68.03;;;;;;;;;;5110376;28;20020;-76
2021/12/28 14:18:28;;;;;;;393.23;67.03;;;;;;;;;;5104609;28;20027;-77
2021/12/28 14:20:54;;;;;;;370.63;63.45;;;;;;;;;;5093965;28;20634;-77
2021/12/28 14:23:28;;;;;;;222.95;60.75;;;;;;;;;;5091397;28;20044;-77
2021/12/28 14:26:09;;;;;;;260.98;62.90;;;;;;;;;;5090246;28;20039;-77
2021/12/28 14:28:40;;;;;;;342.52;77.50;;;;;;;;;;5088130;28;20051;-77
2021/12/28 14:31:26;;;;;;;353.60;79.10;;;;;;;;;;5093512;28;20024;-76
2021/12/28 14:33:57;;;;;;;421.38;82.10;;;;;;;;;;5094239;28;20020;-76
2021/12/28 14:36:29;;;;;;;359.75;83.00;;;;;;;;;;5096636;28;20028;-77
2021/12/28 14:39:09;;;;;;;356.67;69.05;;;;;;;;;;5095869;28;20024;-79
2021/12/28 14:41:35;;;;;;;377.35;71.53;;;;;;;;;;5093526;28;20027;-76
2021/12/28 14:44:09;;;;;;;291.48;66.43;;;;;;;;;;5105727;28;20021;-78
2021/12/28 14:46:35;;;;;;;355.88;74.50;;;;;;;;;;5094164;28;20027;-78
2021/12/28 14:49:01;;;;;;;348.50;73.55;;;;;;;;;;5093814;28;20110;-77
2021/12/28 14:51:29;;;;;;;273.35;66.68;;;;;;;;;;5095471;28;20511;-76
2021/12/28 14:54:26;;;;;;;252.90;62.03;;;;;;;;;;5094734;28;20066;-77
2021/12/28 14:56:58;;;;;;;289.58;62.72;;;;;;;;;;5063379;28;20071;-77
2021/12/28 14:59:25;;;;;;;292.65;64.45;;;;;;;;;;5066389;28;20645;-76
2021/12/28 15:01:55;;;;;;;226.45;57.53;;;;;;;;;;5044753;28;20108;-76
2021/12/28 15:04:24;;;;;;;203.98;55.55;;;;;;;;;;5072820;28;20138;-76
2021/12/28 15:07:01;;;;;;;195.55;53.70;;;;;;;;;;5075157;28;20052;-76
2021/12/28 15:09:45;;;;;;;239.88;57.33;;;;;;;;;;5072451;28;20062;-75
2021/12/28 15:12:11;;;;;;;173.80;53.95;;;;;;;;;;5076315;28;20044;-72
2021/12/28 15:14:37;;;;;;;220.32;55.05;;;;;;;;;;5065399;28;20028;-74
2021/12/28 15:17:05;;;;;;;231.13;53.78;;;;;;;;;;5082891;28;20505;-72
2021/12/28 15:19:32;;;;;;;262.77;58.35;;;;;;;;;;5078695;28;20071;-76
2021/12/28 15:22:03;;;;;;;234.18;66.47;;;;;;;;;;5059683;28;20561;-79
2021/12/28 15:24:33;;;;;;;286.88;74.22;;;;;;;;;;5080517;28;20071;-76
2021/12/28 15:27:03;;;;;;;244.82;62.63;;;;;;;;;;5080490;28;20592;-79
2021/12/28 15:29:33;;;;;;;268.65;63.25;;;;;;;;;;5073087;28;20481;-77
2021/12/28 15:31:59;;;;;;;224.60;54.13;;;;;;;;;;5083472;28;20489;-77
2021/12/28 15:34:28;;;;;;;203.23;52.35;;;;;;;;;;5097420;28;20570;-78
2021/12/28 15:36:55;;;;;;;210.02;51.88;;;;;;;;;;5096427;28;20036;-77
2021/12/28 15:39:21;;;;;;;254.43;55.95;;;;;;;;;;5100723;28;20370;-76
2021/12/28 15:41:49;;;;;;;260.23;53.13;;;;;;;;;;5094206;28;20107;-76